sensor_id;sensor_type;location;lat;lon;timestamp;P1;durP1;ratioP1;P2;durP2;ratioP2
44130;SDS011;29792;48.726;9.248;2024-03-17T00:01:32;10.20;;;9.05;;
44130;SDS011;29792;48.726;9.248;2024-03-17T00:03:57;11.60;;;9.68;;
44130;SDS011;29792;48.726;9.248;2024-03-17T00:06:24;13.82;;;10.52;;
44130;SDS011;29792;48.726;9.248;2024-03-17T00:08:49;10.88;;;9.75;;
44130;SDS011;29792;48.726;9.248;2024-03-17T00:11:15;11.90;;;10.10;;
44130;SDS011;29792;48.726;9.248;2024-03-17T00:13:40;10.95;;;8.63;;
44130;SDS011;29792;48.726;9.248;2024-03-17T00:16:06;10.30;;;8.65;;
44130;SDS011;29792;48.726;9.248;2024-03-17T00:18:32;11.23;;;8.52;;
44130;SDS011;29792;48.726;9.248;2024-03-17T00:20:57;9.65;;;7.95;;
44130;SDS011;29792;48.726;9.248;2024-03-17T00:23:22;11.65;;;8.43;;
44130;SDS011;29792;48.726;9.248;2024-03-17T00:25:47;9.25;;;8.07;;
44130;SDS011;29792;48.726;9.248;2024-03-17T00:28:12;9.90;;;8.88;;
44130;SDS011;29792;48.726;9.248;2024-03-17T00:30:38;10.05;;;8.73;;
44130;SDS011;29792;48.726;9.248;2024-03-17T00:33:03;9.35;;;7.13;;
44130;SDS011;29792;48.726;9.248;2024-03-17T00:35:28;10.10;;;8.55;;
44130;SDS011;29792;48.726;9.248;2024-03-17T00:37:55;9.75;;;8.57;;
44130;SDS011;29792;48.726;9.248;2024-03-17T00:40:20;10.48;;;9.07;;
44130;SDS011;29792;48.726;9.248;2024-03-17T00:42:46;11.35;;;8.57;;
44130;SDS011;29792;48.726;9.248;2024-03-17T00:45:12;9.70;;;8.40;;
44130;SDS011;29792;48.726;9.248;2024-03-17T00:47:37;10.38;;;8.05;;
44130;SDS011;29792;48.726;9.248;2024-03-17T00:50:03;12.05;;;9.02;;
44130;SDS011;29792;48.726;9.248;2024-03-17T00:52:30;11.23;;;9.65;;
44130;SDS011;29792;48.726;9.248;2024-03-17T00:54:55;12.68;;;9.30;;
44130;SDS011;29792;48.726;9.248;2024-03-17T00:57:21;9.05;;;8.10;;
44130;SDS011;29792;48.726;9.248;2024-03-17T00:59:46;9.10;;;7.80;;
44130;SDS011;29792;48.726;9.248;2024-03-17T01:02:11;9.95;;;8.95;;
44130;SDS011;29792;48.726;9.248;2024-03-17T01:04:38;12.35;;;9.82;;
44130;SDS011;29792;48.726;9.248;2024-03-17T01:07:04;9.52;;;8.38;;
44130;SDS011;29792;48.726;9.248;2024-03-17T01:09:30;11.52;;;9.40;;
44130;SDS011;29792;48.726;9.248;2024-03-17T01:11:55;11.15;;;9.95;;
44130;SDS011;29792;48.726;9.248;2024-03-17T01:14:20;11.43;;;10.25;;
44130;SDS011;29792;48.726;9.248;2024-03-17T01:16:46;11.07;;;9.73;;
44130;SDS011;29792;48.726;9.248;2024-03-17T01:19:11;10.68;;;9.57;;
44130;SDS011;29792;48.726;9.248;2024-03-17T01:21:36;12.98;;;10.55;;
44130;SDS011;29792;48.726;9.248;2024-03-17T01:24:02;10.80;;;9.30;;
44130;SDS011;29792;48.726;9.248;2024-03-17T01:26:27;11.45;;;8.85;;
44130;SDS011;29792;48.726;9.248;2024-03-17T01:28:53;9.98;;;8.90;;
44130;SDS011;29792;48.726;9.248;2024-03-17T01:31:18;12.63;;;11.32;;
44130;SDS011;29792;48.726;9.248;2024-03-17T01:33:43;12.30;;;10.20;;
44130;SDS011;29792;48.726;9.248;2024-03-17T01:36:08;10.77;;;9.35;;
44130;SDS011;29792;48.726;9.248;2024-03-17T01:38:34;11.90;;;10.27;;
44130;SDS011;29792;48.726;9.248;2024-03-17T01:40:59;11.15;;;10.00;;
44130;SDS011;29792;48.726;9.248;2024-03-17T01:43:25;13.13;;;11.73;;
44130;SDS011;29792;48.726;9.248;2024-03-17T01:45:51;13.40;;;10.65;;
44130;SDS011;29792;48.726;9.248;2024-03-17T01:48:17;12.18;;;10.35;;
44130;SDS011;29792;48.726;9.248;2024-03-17T01:50:44;12.70;;;10.55;;
44130;SDS011;29792;48.726;9.248;2024-03-17T01:53:11;12.40;;;11.10;;
44130;SDS011;29792;48.726;9.248;2024-03-17T01:55:39;11.25;;;9.88;;
44130;SDS011;29792;48.726;9.248;2024-03-17T01:58:07;11.65;;;10.40;;
44130;SDS011;29792;48.726;9.248;2024-03-17T02:00:34;12.88;;;10.93;;
44130;SDS011;29792;48.726;9.248;2024-03-17T02:03:01;11.23;;;10.13;;
44130;SDS011;29792;48.726;9.248;2024-03-17T02:05:28;13.90;;;10.65;;
44130;SDS011;29792;48.726;9.248;2024-03-17T02:07:53;11.52;;;10.20;;
44130;SDS011;29792;48.726;9.248;2024-03-17T02:10:19;10.70;;;9.60;;
44130;SDS011;29792;48.726;9.248;2024-03-17T02:12:44;13.73;;;10.35;;
44130;SDS011;29792;48.726;9.248;2024-03-17T02:15:09;11.43;;;10.25;;
44130;SDS011;29792;48.726;9.248;2024-03-17T02:17:34;12.07;;;10.38;;
44130;SDS011;29792;48.726;9.248;2024-03-17T02:20:00;14.07;;;10.90;;
44130;SDS011;29792;48.726;9.248;2024-03-17T02:22:25;12.38;;;11.00;;
44130;SDS011;29792;48.726;9.248;2024-03-17T02:24:53;14.40;;;11.63;;
44130;SDS011;29792;48.726;9.248;2024-03-17T02:27:18;12.32;;;10.07;;
44130;SDS011;29792;48.726;9.248;2024-03-17T02:29:44;13.75;;;10.30;;
44130;SDS011;29792;48.726;9.248;2024-03-17T02:32:10;12.15;;;9.88;;
44130;SDS011;29792;48.726;9.248;2024-03-17T02:34:37;12.07;;;10.85;;
44130;SDS011;29792;48.726;9.248;2024-03-17T02:37:03;11.38;;;10.20;;
44130;SDS011;29792;48.726;9.248;2024-03-17T02:39:30;13.95;;;10.80;;
44130;SDS011;29792;48.726;9.248;2024-03-17T02:42:09;11.70;;;10.10;;
44130;SDS011;29792;48.726;9.248;2024-03-17T02:44:35;14.55;;;10.38;;
44130;SDS011;29792;48.726;9.248;2024-03-17T02:47:03;13.48;;;11.63;;
44130;SDS011;29792;48.726;9.248;2024-03-17T02:49:29;11.88;;;10.77;;
44130;SDS011;29792;48.726;9.248;2024-03-17T02:52:09;12.40;;;11.05;;
44130;SDS011;29792;48.726;9.248;2024-03-17T02:54:35;12.02;;;10.77;;
44130;SDS011;29792;48.726;9.248;2024-03-17T02:57:02;11.82;;;10.35;;
44130;SDS011;29792;48.726;9.248;2024-03-17T02:59:27;12.65;;;11.27;;
44130;SDS011;29792;48.726;9.248;2024-03-17T03:01:53;13.15;;;10.00;;
44130;SDS011;29792;48.726;9.248;2024-03-17T03:04:19;12.07;;;10.60;;
44130;SDS011;29792;48.726;9.248;2024-03-17T03:06:45;12.30;;;10.70;;
44130;SDS011;29792;48.726;9.248;2024-03-17T03:09:10;15.52;;;11.18;;
44130;SDS011;29792;48.726;9.248;2024-03-17T03:11:40;10.63;;;9.63;;
44130;SDS011;29792;48.726;9.248;2024-03-17T03:14:06;13.98;;;11.48;;
44130;SDS011;29792;48.726;9.248;2024-03-17T03:16:32;16.77;;;12.75;;
44130;SDS011;29792;48.726;9.248;2024-03-17T03:18:58;12.82;;;10.80;;
44130;SDS011;29792;48.726;9.248;2024-03-17T03:21:24;13.82;;;11.38;;
44130;SDS011;29792;48.726;9.248;2024-03-17T03:23:49;11.75;;;10.50;;
44130;SDS011;29792;48.726;9.248;2024-03-17T03:26:14;11.00;;;9.52;;
44130;SDS011;29792;48.726;9.248;2024-03-17T03:28:39;11.05;;;9.75;;
44130;SDS011;29792;48.726;9.248;2024-03-17T03:31:05;11.32;;;10.23;;
44130;SDS011;29792;48.726;9.248;2024-03-17T03:33:30;10.73;;;9.63;;
44130;SDS011;29792;48.726;9.248;2024-03-17T03:35:56;13.35;;;9.30;;
44130;SDS011;29792;48.726;9.248;2024-03-17T03:38:21;11.75;;;9.90;;
44130;SDS011;29792;48.726;9.248;2024-03-17T03:40:47;11.50;;;9.60;;
44130;SDS011;29792;48.726;9.248;2024-03-17T03:43:13;11.57;;;10.38;;
44130;SDS011;29792;48.726;9.248;2024-03-17T03:45:39;11.68;;;10.00;;
44130;SDS011;29792;48.726;9.248;2024-03-17T03:48:05;11.50;;;10.02;;
44130;SDS011;29792;48.726;9.248;2024-03-17T03:50:31;14.52;;;10.38;;
44130;SDS011;29792;48.726;9.248;2024-03-17T03:52:58;12.60;;;9.98;;
44130;SDS011;29792;48.726;9.248;2024-03-17T03:55:23;10.90;;;9.75;;
44130;SDS011;29792;48.726;9.248;2024-03-17T03:57:49;11.43;;;10.25;;
44130;SDS011;29792;48.726;9.248;2024-03-17T04:00:17;13.85;;;10.10;;
44130;SDS011;29792;48.726;9.248;2024-03-17T04:02:49;11.93;;;10.75;;
44130;SDS011;29792;48.726;9.248;2024-03-17T04:05:16;13.23;;;10.77;;
44130;SDS011;29792;48.726;9.248;2024-03-17T04:07:42;12.40;;;11.02;;
44130;SDS011;29792;48.726;9.248;2024-03-17T04:10:10;15.75;;;12.13;;
44130;SDS011;29792;48.726;9.248;2024-03-17T04:12:36;17.00;;;11.73;;
44130;SDS011;29792;48.726;9.248;2024-03-17T04:15:03;16.02;;;11.48;;
44130;SDS011;29792;48.726;9.248;2024-03-17T04:17:31;13.32;;;10.95;;
44130;SDS011;29792;48.726;9.248;2024-03-17T04:19:56;9.93;;;8.93;;
44130;SDS011;29792;48.726;9.248;2024-03-17T04:22:21;40.00;;;11.50;;
44130;SDS011;29792;48.726;9.248;2024-03-17T04:24:47;13.30;;;10.75;;
44130;SDS011;29792;48.726;9.248;2024-03-17T04:27:22;43.13;;;11.57;;
44130;SDS011;29792;48.726;9.248;2024-03-17T04:29:54;15.38;;;8.57;;
44130;SDS011;29792;48.726;9.248;2024-03-17T04:32:21;10.30;;;8.85;;
44130;SDS011;29792;48.726;9.248;2024-03-17T04:34:47;11.48;;;9.52;;
44130;SDS011;29792;48.726;9.248;2024-03-17T04:37:12;13.95;;;10.02;;
44130;SDS011;29792;48.726;9.248;2024-03-17T04:39:38;11.52;;;9.48;;
44130;SDS011;29792;48.726;9.248;2024-03-17T04:42:05;9.63;;;8.63;;
44130;SDS011;29792;48.726;9.248;2024-03-17T04:44:31;9.18;;;8.27;;
44130;SDS011;29792;48.726;9.248;2024-03-17T04:46:57;10.90;;;8.38;;
44130;SDS011;29792;48.726;9.248;2024-03-17T04:49:22;9.68;;;8.63;;
44130;SDS011;29792;48.726;9.248;2024-03-17T04:51:48;10.82;;;9.15;;
44130;SDS011;29792;48.726;9.248;2024-03-17T04:54:13;9.57;;;8.25;;
44130;SDS011;29792;48.726;9.248;2024-03-17T04:56:38;11.15;;;9.02;;
44130;SDS011;29792;48.726;9.248;2024-03-17T04:59:03;9.45;;;7.97;;
44130;SDS011;29792;48.726;9.248;2024-03-17T05:01:30;8.50;;;7.55;;
44130;SDS011;29792;48.726;9.248;2024-03-17T05:03:56;9.38;;;7.93;;
44130;SDS011;29792;48.726;9.248;2024-03-17T05:06:21;9.77;;;8.10;;
44130;SDS011;29792;48.726;9.248;2024-03-17T05:08:47;10.05;;;8.52;;
44130;SDS011;29792;48.726;9.248;2024-03-17T05:11:12;9.32;;;7.68;;
44130;SDS011;29792;48.726;9.248;2024-03-17T05:13:39;8.18;;;7.15;;
44130;SDS011;29792;48.726;9.248;2024-03-17T05:16:04;10.80;;;7.32;;
44130;SDS011;29792;48.726;9.248;2024-03-17T05:18:30;8.77;;;7.85;;
44130;SDS011;29792;48.726;9.248;2024-03-17T05:21:05;11.23;;;9.05;;
44130;SDS011;29792;48.726;9.248;2024-03-17T05:23:32;9.05;;;7.55;;
44130;SDS011;29792;48.726;9.248;2024-03-17T05:26:01;11.07;;;7.50;;
44130;SDS011;29792;48.726;9.248;2024-03-17T05:28:27;12.40;;;8.73;;
44130;SDS011;29792;48.726;9.248;2024-03-17T05:30:54;10.13;;;8.82;;
44130;SDS011;29792;48.726;9.248;2024-03-17T05:33:20;10.45;;;8.82;;
44130;SDS011;29792;48.726;9.248;2024-03-17T05:35:50;6.95;;;6.25;;
44130;SDS011;29792;48.726;9.248;2024-03-17T05:38:17;10.98;;;8.35;;
44130;SDS011;29792;48.726;9.248;2024-03-17T05:40:56;7.20;;;6.50;;
44130;SDS011;29792;48.726;9.248;2024-03-17T05:43:24;8.40;;;7.47;;
44130;SDS011;29792;48.726;9.248;2024-03-17T05:45:51;9.35;;;7.78;;
44130;SDS011;29792;48.726;9.248;2024-03-17T05:48:17;9.90;;;7.07;;
44130;SDS011;29792;48.726;9.248;2024-03-17T05:50:42;10.73;;;8.23;;
44130;SDS011;29792;48.726;9.248;2024-03-17T05:53:08;9.40;;;8.30;;
44130;SDS011;29792;48.726;9.248;2024-03-17T05:55:36;7.85;;;6.63;;
44130;SDS011;29792;48.726;9.248;2024-03-17T05:58:02;9.55;;;7.13;;
44130;SDS011;29792;48.726;9.248;2024-03-17T06:00:27;9.10;;;7.85;;
44130;SDS011;29792;48.726;9.248;2024-03-17T06:02:53;7.45;;;6.70;;
44130;SDS011;29792;48.726;9.248;2024-03-17T06:05:18;9.55;;;8.45;;
44130;SDS011;29792;48.726;9.248;2024-03-17T06:07:43;9.27;;;7.60;;
44130;SDS011;29792;48.726;9.248;2024-03-17T06:10:09;8.32;;;7.43;;
44130;SDS011;29792;48.726;9.248;2024-03-17T06:12:34;10.23;;;7.22;;
44130;SDS011;29792;48.726;9.248;2024-03-17T06:14:59;9.23;;;6.82;;
44130;SDS011;29792;48.726;9.248;2024-03-17T06:17:27;9.02;;;7.72;;
44130;SDS011;29792;48.726;9.248;2024-03-17T06:19:52;9.27;;;7.57;;
44130;SDS011;29792;48.726;9.248;2024-03-17T06:22:17;8.27;;;6.05;;
44130;SDS011;29792;48.726;9.248;2024-03-17T06:24:42;8.38;;;7.50;;
44130;SDS011;29792;48.726;9.248;2024-03-17T06:27:08;9.30;;;7.00;;
44130;SDS011;29792;48.726;9.248;2024-03-17T06:29:33;7.80;;;7.00;;
44130;SDS011;29792;48.726;9.248;2024-03-17T06:31:58;9.70;;;7.25;;
44130;SDS011;29792;48.726;9.248;2024-03-17T06:34:25;8.50;;;6.97;;
44130;SDS011;29792;48.726;9.248;2024-03-17T06:36:50;7.82;;;7.00;;
44130;SDS011;29792;48.726;9.248;2024-03-17T06:39:15;8.68;;;7.13;;
44130;SDS011;29792;48.726;9.248;2024-03-17T06:41:41;10.13;;;7.57;;
44130;SDS011;29792;48.726;9.248;2024-03-17T06:44:07;11.27;;;7.78;;
44130;SDS011;29792;48.726;9.248;2024-03-17T06:46:33;11.20;;;7.28;;
44130;SDS011;29792;48.726;9.248;2024-03-17T06:48:58;9.13;;;8.18;;
44130;SDS011;29792;48.726;9.248;2024-03-17T06:51:24;8.15;;;7.35;;
44130;SDS011;29792;48.726;9.248;2024-03-17T06:53:50;9.52;;;7.00;;
44130;SDS011;29792;48.726;9.248;2024-03-17T06:56:15;9.85;;;7.20;;
44130;SDS011;29792;48.726;9.248;2024-03-17T06:58:40;9.20;;;7.82;;
44130;SDS011;29792;48.726;9.248;2024-03-17T07:01:06;8.02;;;6.45;;
44130;SDS011;29792;48.726;9.248;2024-03-17T07:03:31;8.60;;;6.75;;
44130;SDS011;29792;48.726;9.248;2024-03-17T07:05:58;8.02;;;7.07;;
44130;SDS011;29792;48.726;9.248;2024-03-17T07:08:27;8.55;;;7.70;;
44130;SDS011;29792;48.726;9.248;2024-03-17T07:10:57;8.05;;;7.25;;
44130;SDS011;29792;48.726;9.248;2024-03-17T07:13:24;10.80;;;7.13;;
44130;SDS011;29792;48.726;9.248;2024-03-17T07:15:49;8.65;;;6.65;;
44130;SDS011;29792;48.726;9.248;2024-03-17T07:18:14;8.80;;;6.50;;
44130;SDS011;29792;48.726;9.248;2024-03-17T07:20:40;9.15;;;7.25;;
44130;SDS011;29792;48.726;9.248;2024-03-17T07:23:05;8.07;;;6.65;;
44130;SDS011;29792;48.726;9.248;2024-03-17T07:25:30;9.00;;;6.85;;
44130;SDS011;29792;48.726;9.248;2024-03-17T07:27:56;8.63;;;6.40;;
44130;SDS011;29792;48.726;9.248;2024-03-17T07:30:21;8.93;;;6.85;;
44130;SDS011;29792;48.726;9.248;2024-03-17T07:32:46;7.82;;;7.03;;
44130;SDS011;29792;48.726;9.248;2024-03-17T07:35:12;7.43;;;6.45;;
44130;SDS011;29792;48.726;9.248;2024-03-17T07:37:37;7.53;;;6.80;;
44130;SDS011;29792;48.726;9.248;2024-03-17T07:40:04;9.10;;;6.82;;
44130;SDS011;29792;48.726;9.248;2024-03-17T07:42:31;9.43;;;7.22;;
44130;SDS011;29792;48.726;9.248;2024-03-17T07:44:57;9.02;;;6.18;;
44130;SDS011;29792;48.726;9.248;2024-03-17T07:47:23;8.88;;;6.80;;
44130;SDS011;29792;48.726;9.248;2024-03-17T07:49:48;8.32;;;6.18;;
44130;SDS011;29792;48.726;9.248;2024-03-17T07:52:13;12.77;;;7.05;;
44130;SDS011;29792;48.726;9.248;2024-03-17T07:54:38;7.13;;;6.07;;
44130;SDS011;29792;48.726;9.248;2024-03-17T07:57:04;7.45;;;6.28;;
44130;SDS011;29792;48.726;9.248;2024-03-17T07:59:29;6.00;;;5.22;;
44130;SDS011;29792;48.726;9.248;2024-03-17T08:01:55;7.05;;;6.25;;
44130;SDS011;29792;48.726;9.248;2024-03-17T08:04:21;6.30;;;5.35;;
44130;SDS011;29792;48.726;9.248;2024-03-17T08:06:47;6.22;;;5.35;;
44130;SDS011;29792;48.726;9.248;2024-03-17T08:09:12;6.93;;;5.80;;
44130;SDS011;29792;48.726;9.248;2024-03-17T08:11:37;6.72;;;5.15;;
44130;SDS011;29792;48.726;9.248;2024-03-17T08:14:03;6.28;;;5.55;;
44130;SDS011;29792;48.726;9.248;2024-03-17T08:16:30;6.68;;;4.80;;
44130;SDS011;29792;48.726;9.248;2024-03-17T08:18:56;6.40;;;5.25;;
44130;SDS011;29792;48.726;9.248;2024-03-17T08:21:21;5.65;;;4.85;;
44130;SDS011;29792;48.726;9.248;2024-03-17T08:23:47;5.40;;;4.63;;
44130;SDS011;29792;48.726;9.248;2024-03-17T08:26:12;8.50;;;5.63;;
44130;SDS011;29792;48.726;9.248;2024-03-17T08:28:38;5.45;;;4.95;;
44130;SDS011;29792;48.726;9.248;2024-03-17T08:31:04;6.82;;;5.13;;
44130;SDS011;29792;48.726;9.248;2024-03-17T08:33:29;9.00;;;5.60;;
44130;SDS011;29792;48.726;9.248;2024-03-17T08:35:59;5.55;;;4.55;;
44130;SDS011;29792;48.726;9.248;2024-03-17T08:38:29;6.43;;;4.82;;
44130;SDS011;29792;48.726;9.248;2024-03-17T08:40:56;5.88;;;5.07;;
44130;SDS011;29792;48.726;9.248;2024-03-17T08:43:22;5.85;;;4.72;;
44130;SDS011;29792;48.726;9.248;2024-03-17T08:45:55;5.53;;;4.93;;
44130;SDS011;29792;48.726;9.248;2024-03-17T08:48:26;5.75;;;4.50;;
44130;SDS011;29792;48.726;9.248;2024-03-17T08:50:58;6.03;;;4.90;;
44130;SDS011;29792;48.726;9.248;2024-03-17T08:53:28;5.43;;;4.70;;
44130;SDS011;29792;48.726;9.248;2024-03-17T08:55:54;6.00;;;4.38;;
44130;SDS011;29792;48.726;9.248;2024-03-17T08:58:29;5.00;;;4.50;;
44130;SDS011;29792;48.726;9.248;2024-03-17T09:01:07;6.13;;;5.03;;
44130;SDS011;29792;48.726;9.248;2024-03-17T09:03:34;5.95;;;4.25;;
44130;SDS011;29792;48.726;9.248;2024-03-17T09:06:00;5.28;;;4.10;;
44130;SDS011;29792;48.726;9.248;2024-03-17T09:08:25;5.65;;;4.97;;
44130;SDS011;29792;48.726;9.248;2024-03-17T09:10:53;6.45;;;5.25;;
44130;SDS011;29792;48.726;9.248;2024-03-17T09:13:19;5.95;;;4.65;;
44130;SDS011;29792;48.726;9.248;2024-03-17T09:16:01;6.78;;;5.28;;
44130;SDS011;29792;48.726;9.248;2024-03-17T09:18:27;4.55;;;3.67;;
44130;SDS011;29792;48.726;9.248;2024-03-17T09:20:59;3.97;;;3.65;;
44130;SDS011;29792;48.726;9.248;2024-03-17T09:23:26;4.85;;;2.97;;
44130;SDS011;29792;48.726;9.248;2024-03-17T09:25:59;3.67;;;3.35;;
44130;SDS011;29792;48.726;9.248;2024-03-17T09:28:27;4.80;;;3.65;;
44130;SDS011;29792;48.726;9.248;2024-03-17T09:30:53;5.80;;;3.65;;
44130;SDS011;29792;48.726;9.248;2024-03-17T09:33:19;4.80;;;3.25;;
44130;SDS011;29792;48.726;9.248;2024-03-17T09:35:52;5.10;;;3.33;;
44130;SDS011;29792;48.726;9.248;2024-03-17T09:38:21;3.40;;;3.10;;
44130;SDS011;29792;48.726;9.248;2024-03-17T09:40:47;4.57;;;3.13;;
44130;SDS011;29792;48.726;9.248;2024-03-17T09:43:14;3.70;;;3.40;;
44130;SDS011;29792;48.726;9.248;2024-03-17T09:45:40;3.38;;;2.70;;
44130;SDS011;29792;48.726;9.248;2024-03-17T09:48:05;5.07;;;3.55;;
44130;SDS011;29792;48.726;9.248;2024-03-17T09:50:32;3.17;;;2.33;;
44130;SDS011;29792;48.726;9.248;2024-03-17T09:52:59;4.22;;;2.55;;
44130;SDS011;29792;48.726;9.248;2024-03-17T09:55:26;2.55;;;2.35;;
44130;SDS011;29792;48.726;9.248;2024-03-17T09:57:51;3.15;;;2.25;;
44130;SDS011;29792;48.726;9.248;2024-03-17T10:00:17;3.70;;;2.78;;
44130;SDS011;29792;48.726;9.248;2024-03-17T10:02:45;5.95;;;3.42;;
44130;SDS011;29792;48.726;9.248;2024-03-17T10:05:22;3.65;;;3.03;;
44130;SDS011;29792;48.726;9.248;2024-03-17T10:07:49;4.25;;;3.05;;
44130;SDS011;29792;48.726;9.248;2024-03-17T10:10:15;2.78;;;2.25;;
44130;SDS011;29792;48.726;9.248;2024-03-17T10:12:42;4.30;;;2.60;;
44130;SDS011;29792;48.726;9.248;2024-03-17T10:15:08;3.03;;;2.53;;
44130;SDS011;29792;48.726;9.248;2024-03-17T10:17:36;2.65;;;2.45;;
44130;SDS011;29792;48.726;9.248;2024-03-17T10:20:21;4.00;;;2.85;;
44130;SDS011;29792;48.726;9.248;2024-03-17T10:25:28;3.58;;;2.83;;
44130;SDS011;29792;48.726;9.248;2024-03-17T10:27:55;2.75;;;2.38;;
44130;SDS011;29792;48.726;9.248;2024-03-17T10:30:21;4.72;;;2.28;;
44130;SDS011;29792;48.726;9.248;2024-03-17T10:32:54;2.75;;;2.50;;
44130;SDS011;29792;48.726;9.248;2024-03-17T10:35:30;2.92;;;2.63;;
44130;SDS011;29792;48.726;9.248;2024-03-17T10:38:01;4.53;;;2.83;;
44130;SDS011;29792;48.726;9.248;2024-03-17T10:40:28;2.90;;;2.33;;
44130;SDS011;29792;48.726;9.248;2024-03-17T10:42:55;3.30;;;2.03;;
44130;SDS011;29792;48.726;9.248;2024-03-17T10:45:22;5.53;;;2.13;;
44130;SDS011;29792;48.726;9.248;2024-03-17T10:47:48;2.75;;;2.42;;
44130;SDS011;29792;48.726;9.248;2024-03-17T10:50:19;4.15;;;2.45;;
44130;SDS011;29792;48.726;9.248;2024-03-17T10:52:46;3.78;;;2.20;;
44130;SDS011;29792;48.726;9.248;2024-03-17T10:55:23;2.45;;;1.70;;
44130;SDS011;29792;48.726;9.248;2024-03-17T10:57:50;3.58;;;2.53;;
44130;SDS011;29792;48.726;9.248;2024-03-17T11:00:23;3.08;;;2.10;;
44130;SDS011;29792;48.726;9.248;2024-03-17T11:02:50;2.50;;;2.08;;
44130;SDS011;29792;48.726;9.248;2024-03-17T11:05:18;4.45;;;2.20;;
44130;SDS011;29792;48.726;9.248;2024-03-17T11:07:47;2.38;;;1.90;;
44130;SDS011;29792;48.726;9.248;2024-03-17T11:10:23;3.42;;;2.13;;
44130;SDS011;29792;48.726;9.248;2024-03-17T11:12:54;3.80;;;1.60;;
44130;SDS011;29792;48.726;9.248;2024-03-17T11:20:36;6.93;;;5.03;;
44130;SDS011;29792;48.726;9.248;2024-03-17T11:23:02;3.85;;;2.50;;
44130;SDS011;29792;48.726;9.248;2024-03-17T11:27:59;2.22;;;2.03;;
44130;SDS011;29792;48.726;9.248;2024-03-17T11:33:46;3.53;;;2.42;;
44130;SDS011;29792;48.726;9.248;2024-03-17T11:41:48;2.20;;;1.38;;
44130;SDS011;29792;48.726;9.248;2024-03-17T11:46:40;3.08;;;1.40;;
44130;SDS011;29792;48.726;9.248;2024-03-17T11:49:12;2.50;;;1.65;;
44130;SDS011;29792;48.726;9.248;2024-03-17T11:51:43;2.10;;;1.58;;
44130;SDS011;29792;48.726;9.248;2024-03-17T11:54:14;1.83;;;1.30;;
44130;SDS011;29792;48.726;9.248;2024-03-17T11:56:53;1.90;;;1.73;;
44130;SDS011;29792;48.726;9.248;2024-03-17T11:59:20;2.63;;;1.60;;
44130;SDS011;29792;48.726;9.248;2024-03-17T12:01:47;1.63;;;1.40;;
44130;SDS011;29792;48.726;9.248;2024-03-17T12:04:16;3.13;;;1.88;;
44130;SDS011;29792;48.726;9.248;2024-03-17T12:06:44;2.05;;;1.52;;
44130;SDS011;29792;48.726;9.248;2024-03-17T12:09:11;1.98;;;1.67;;
44130;SDS011;29792;48.726;9.248;2024-03-17T12:11:50;2.05;;;1.52;;
44130;SDS011;29792;48.726;9.248;2024-03-17T12:14:22;4.43;;;2.20;;
44130;SDS011;29792;48.726;9.248;2024-03-17T12:16:54;3.10;;;1.70;;
44130;SDS011;29792;48.726;9.248;2024-03-17T12:19:24;2.13;;;1.80;;
44130;SDS011;29792;48.726;9.248;2024-03-17T12:21:50;2.65;;;1.55;;
44130;SDS011;29792;48.726;9.248;2024-03-17T12:24:21;4.10;;;2.70;;
44130;SDS011;29792;48.726;9.248;2024-03-17T12:26:48;2.72;;;1.67;;
44130;SDS011;29792;48.726;9.248;2024-03-17T12:32:13;4.05;;;2.30;;
44130;SDS011;29792;48.726;9.248;2024-03-17T12:34:41;3.15;;;1.95;;
44130;SDS011;29792;48.726;9.248;2024-03-17T12:37:07;2.95;;;1.60;;
44130;SDS011;29792;48.726;9.248;2024-03-17T12:39:33;2.75;;;2.55;;
44130;SDS011;29792;48.726;9.248;2024-03-17T12:44:48;4.53;;;2.15;;
44130;SDS011;29792;48.726;9.248;2024-03-17T12:47:15;3.40;;;1.63;;
44130;SDS011;29792;48.726;9.248;2024-03-17T12:49:46;2.72;;;2.00;;
44130;SDS011;29792;48.726;9.248;2024-03-17T12:55:03;2.97;;;2.75;;
44130;SDS011;29792;48.726;9.248;2024-03-17T13:00:33;2.83;;;1.98;;
44130;SDS011;29792;48.726;9.248;2024-03-17T13:05:29;5.00;;;1.98;;
44130;SDS011;29792;48.726;9.248;2024-03-17T13:07:56;2.90;;;2.35;;
44130;SDS011;29792;48.726;9.248;2024-03-17T13:10:22;3.47;;;1.73;;
44130;SDS011;29792;48.726;9.248;2024-03-17T13:13:02;2.25;;;1.80;;
44130;SDS011;29792;48.726;9.248;2024-03-17T13:15:33;2.78;;;1.80;;
44130;SDS011;29792;48.726;9.248;2024-03-17T13:18:02;2.65;;;1.15;;
44130;SDS011;29792;48.726;9.248;2024-03-17T13:20:29;2.72;;;1.55;;
44130;SDS011;29792;48.726;9.248;2024-03-17T13:22:54;1.17;;;0.73;;
44130;SDS011;29792;48.726;9.248;2024-03-17T13:25:27;3.42;;;1.25;;
44130;SDS011;29792;48.726;9.248;2024-03-17T13:28:03;1.90;;;0.85;;
44130;SDS011;29792;48.726;9.248;2024-03-17T13:30:29;2.25;;;0.90;;
44130;SDS011;29792;48.726;9.248;2024-03-17T13:32:55;1.02;;;0.80;;
44130;SDS011;29792;48.726;9.248;2024-03-17T13:35:23;1.98;;;0.70;;
44130;SDS011;29792;48.726;9.248;2024-03-17T13:37:51;1.20;;;0.90;;
44130;SDS011;29792;48.726;9.248;2024-03-17T13:40:17;2.47;;;0.90;;
44130;SDS011;29792;48.726;9.248;2024-03-17T13:42:44;2.13;;;0.90;;
44130;SDS011;29792;48.726;9.248;2024-03-17T13:45:10;2.88;;;0.90;;
44130;SDS011;29792;48.726;9.248;2024-03-17T13:47:36;0.70;;;0.70;;
44130;SDS011;29792;48.726;9.248;2024-03-17T13:50:02;2.67;;;0.88;;
44130;SDS011;29792;48.726;9.248;2024-03-17T13:52:31;1.88;;;0.80;;
44130;SDS011;29792;48.726;9.248;2024-03-17T13:54:57;1.90;;;1.60;;
44130;SDS011;29792;48.726;9.248;2024-03-17T13:57:22;1.77;;;0.60;;
44130;SDS011;29792;48.726;9.248;2024-03-17T13:59:48;2.30;;;0.98;;
44130;SDS011;29792;48.726;9.248;2024-03-17T14:02:15;2.03;;;1.00;;
44130;SDS011;29792;48.726;9.248;2024-03-17T14:04:41;3.38;;;0.85;;
44130;SDS011;29792;48.726;9.248;2024-03-17T14:07:06;2.08;;;0.80;;
44130;SDS011;29792;48.726;9.248;2024-03-17T14:09:31;2.88;;;1.00;;
44130;SDS011;29792;48.726;9.248;2024-03-17T14:11:59;2.45;;;1.33;;
44130;SDS011;29792;48.726;9.248;2024-03-17T14:14:24;1.58;;;1.35;;
44130;SDS011;29792;48.726;9.248;2024-03-17T14:16:50;2.65;;;2.00;;
44130;SDS011;29792;48.726;9.248;2024-03-17T14:19:15;4.18;;;1.63;;
44130;SDS011;29792;48.726;9.248;2024-03-17T14:21:40;3.10;;;1.52;;
44130;SDS011;29792;48.726;9.248;2024-03-17T14:24:05;3.20;;;2.08;;
44130;SDS011;29792;48.726;9.248;2024-03-17T14:26:32;2.03;;;1.50;;
44130;SDS011;29792;48.726;9.248;2024-03-17T14:28:58;2.15;;;1.45;;
44130;SDS011;29792;48.726;9.248;2024-03-17T14:31:25;1.25;;;1.13;;
44130;SDS011;29792;48.726;9.248;2024-03-17T14:33:50;3.67;;;1.33;;
44130;SDS011;29792;48.726;9.248;2024-03-17T14:36:15;4.47;;;1.50;;
44130;SDS011;29792;48.726;9.248;2024-03-17T14:38:40;1.83;;;1.23;;
44130;SDS011;29792;48.726;9.248;2024-03-17T14:41:08;1.83;;;1.42;;
44130;SDS011;29792;48.726;9.248;2024-03-17T14:43:33;2.47;;;1.38;;
44130;SDS011;29792;48.726;9.248;2024-03-17T14:46:03;2.55;;;1.17;;
44130;SDS011;29792;48.726;9.248;2024-03-17T14:48:28;2.10;;;1.00;;
44130;SDS011;29792;48.726;9.248;2024-03-17T14:50:53;3.92;;;1.35;;
44130;SDS011;29792;48.726;9.248;2024-03-17T14:53:19;2.60;;;1.65;;
44130;SDS011;29792;48.726;9.248;2024-03-17T14:55:45;2.53;;;1.60;;
44130;SDS011;29792;48.726;9.248;2024-03-17T14:58:10;2.60;;;1.30;;
44130;SDS011;29792;48.726;9.248;2024-03-17T15:00:35;2.17;;;1.60;;
44130;SDS011;29792;48.726;9.248;2024-03-17T15:03:01;4.35;;;1.42;;
44130;SDS011;29792;48.726;9.248;2024-03-17T15:05:26;2.95;;;1.50;;
44130;SDS011;29792;48.726;9.248;2024-03-17T15:07:52;2.47;;;1.27;;
44130;SDS011;29792;48.726;9.248;2024-03-17T15:10:18;1.55;;;1.08;;
44130;SDS011;29792;48.726;9.248;2024-03-17T15:12:45;1.73;;;1.02;;
44130;SDS011;29792;48.726;9.248;2024-03-17T15:15:11;2.60;;;1.80;;